Roseburg, OR

6:07 AM PST on January 31, 2015 (GMT -0800)
Hucrest | Change Station
CLOSE
Current Station
Personal Weather Station
Location: Roseburg, OR
Elevation: 425 ft
Nearby Weather Stations
Active Advisory: Air Stagnation Advisory

Elev 425 ft 43.22 °N, 123.38 °W | Updated 1 minute ago

Overcast
Overcast
45.1 °F
Feels Like 45 °F
N
0.0
Wind Variable Wind from SW
Gusts 0.0 mph

Today
High -- | Low -- °F
--% Chance of Precip.
Yesterday
High -- | Low -- °F
Precip. -- in
7:30 AM 5:24 PM
Waxing Gibbous, 90% visible
Pressure 30.19 in
Visibility 10.0 miles
Clouds Overcast 1300 ft
Windchill 45 °F
Dew Point 41 °F
Humidity 84%
Rainfall 0.00 in
Snow Depth Not available.
UV 0 out of 12
Pollen 4.20 out of 12
Air Quality Not available.
Flu Activity Not available.
METAR KRBG 311253Z AUTO 19003KT 10SM OVC013 08/04 A3018 RMK AO2 SLP222 T00780044

More Conditions Fewer Conditions

Pressure 30.19 in
Visibility 10.0 miles
Clouds Overcast 1300 ft
Windchill 45 °F
Dew Point 41 °F
Humidity 84%
Rainfall 0.00 in
Snow Depth Not available.
UV 0 out of 12
Pollen 4.20 out of 12
Air Quality Not available.
Flu Activity Not available.
METAR KRBG 311253Z AUTO 19003KT 10SM OVC013 08/04 A3018 RMK AO2 SLP222 T00780044

More Conditions Fewer Conditions

10-Day Weather Forecast

Almanac

Astronomy

Jan. 31, 2015 Rise Set
Actual Time
Civil Twilight
Nautical Twilight
Astronomical Twilight
Moon
Length of Visible Light
Length of Day
Tomorrow will be .
, % of the Moon is Illuminated

Today's Extremes

State Highs State Lows

Community

WunderPhotos

Upload Photos

1,792,058 photos uploaded!

WunderBlogs® & News

Nearby

Air Quality

  Air Quality AQ Index Pollutant
Not available.

Snow Depth

Station Depth Elevation

Earthquake Activity

City Distance Mag. Time & Date
Minimum magnitude displayed is 2.5.

Coastal Water Temperatures

Place Temperature

Nearby Weather Stations